Inserite qui i vostri METAR

Area dedicata alla discussioni sulle procedure di navigazione e sulla meteorologia aeronautica

Moderatore: Staff md80.it

Rispondi
Avatar utente
AirGek
FL 500
FL 500
Messaggi: 12233
Iscritto il: 7 dicembre 2008, 12:02
Località: 12 o'clock opposite direction

Re: Inserite qui i vostri METAR

Messaggio da AirGek » 2 aprile 2009, 13:38

LIEA 020920Z 16005KT 120V200 9999 A FEW020 BKN040 13/09 Q1013

LIEA 021020Z 16007KT 140V200 9999 A FEW020 BKN040 14/09 Q1013

LIEA 021120Z 19010KT 9999 A SCT020 BKN035 14/09 Q1013

Che vuol dire la A tra la visibilità e il primo strato di nuvole?
Football, basketball, baseball, tennis, golf? No thanks, I fly. Why? Because all that stuff requires one ball only!

Avatar utente
Paolo_61
FL 500
FL 500
Messaggi: 9181
Iscritto il: 11 settembre 2008, 17:53
Località: MIL

Re: Inserite qui i vostri METAR

Messaggio da Paolo_61 » 6 aprile 2009, 12:37

Non ho il relativo METAR, ma il temporale di ieri mattina nella zona sud di Milano (io l'ho visto arrivare esattamente da LIN) è stato abbastanza impressionante. Per chi ha visto il gran premio di Malesia, il colore del cielo era uguale.
Anche l'attività elettrica è stata notevole!

Avatar utente
AirGek
FL 500
FL 500
Messaggi: 12233
Iscritto il: 7 dicembre 2008, 12:02
Località: 12 o'clock opposite direction

Re: Inserite qui i vostri METAR

Messaggio da AirGek » 6 aprile 2009, 16:36

Paolo_61 ha scritto:Non ho il relativo METAR, ma il temporale di ieri mattina nella zona sud di Milano (io l'ho visto arrivare esattamente da LIN) è stato abbastanza impressionante. Per chi ha visto il gran premio di Malesia, il colore del cielo era uguale.
Anche l'attività elettrica è stata notevole!
Questi sono gli unici METAR di Linate che riportano temporali, ma sono di pomeriggio e poi niente di che...

LIML 051450Z 34008KT 9999 -TSRA FEW025CB SCT030 15/10 Q1018 BECMG NSW
LIML 051420Z 01007KT 9999 -TSRA FEW025CB SCT030 15/09 Q1018 BECMG NSW
LIML 051350Z 04007KT 8000 -TSRA FEW025CB SCT030 19/05 Q1018 NOSIG
Football, basketball, baseball, tennis, golf? No thanks, I fly. Why? Because all that stuff requires one ball only!

Avatar utente
Paolo_61
FL 500
FL 500
Messaggi: 9181
Iscritto il: 11 settembre 2008, 17:53
Località: MIL

Re: Inserite qui i vostri METAR

Messaggio da Paolo_61 » 6 aprile 2009, 17:34

AirGek ha scritto:
Paolo_61 ha scritto:Non ho il relativo METAR, ma il temporale di ieri mattina nella zona sud di Milano (io l'ho visto arrivare esattamente da LIN) è stato abbastanza impressionante. Per chi ha visto il gran premio di Malesia, il colore del cielo era uguale.
Anche l'attività elettrica è stata notevole!
Questi sono gli unici METAR di Linate che riportano temporali, ma sono di pomeriggio e poi niente di che...

LIML 051450Z 34008KT 9999 -TSRA FEW025CB SCT030 15/10 Q1018 BECMG NSW
LIML 051420Z 01007KT 9999 -TSRA FEW025CB SCT030 15/09 Q1018 BECMG NSW
LIML 051350Z 04007KT 8000 -TSRA FEW025CB SCT030 19/05 Q1018 NOSIG
Ero in campo a 6 chilomentri in linea d'aria da testa pista della 36 e non era divertente. Non a caso la gara è stata sospesa per circa mezz'ora. In effetti non c'è stato molto vento, ma la pioggia era forte (soprattutto se sei in maglietta e ti si è rotto l'ombrello) e l'attività elettrica era decisamente consistente. Un fulmine ha colpito forse una linea elettrica, forse un pilone dell'alta tensione, a qualche centinaio di metri da noi.
Gara immediatamente sospesa, qualche "poco furbo" (mi veniva un termine milanese ma non è bello) si è rifugiato sotto gli alberi, io con altri ci siamo messi sotto una tettoia piatta. Comunque è passato molto in fretta.

Avatar utente
**F@b!0**
FL 500
FL 500
Messaggi: 6896
Iscritto il: 17 aprile 2009, 19:21
Località: Olbia (OT)

Re: Inserite qui i vostri METAR

Messaggio da **F@b!0** » 27 aprile 2009, 9:26

METAR LIEO 270720Z 29005KT 230V320 6000 -DZ SCT010 BKN040 15/14 Q1005=

questo è il metar di Olbia Costa Smeralda del 27/04/09 alle 9:20 (0720 zulu)
qualcuno sà cosa vogliono dire 230V320 e -DZ?????????
Click Here to view my aircraft photos at JetPhotos.Net!

China su fronte, si ses sezzidu pesa! ch'es passende sa Brigata tattaresa boh! boh! E cun sa mannu sinna sa mezzus gioventude de Saldigna

Non bat dinare a pacare
una vida pro miserat chi siat
s' omine
no er de imbolare
pro una gherra chi
est' unu affare


*Virtute Siderum Tenus*

jimi3500
02000 ft
02000 ft
Messaggi: 293
Iscritto il: 29 febbraio 2008, 15:26

Re: Inserite qui i vostri METAR

Messaggio da jimi3500 » 27 aprile 2009, 9:30

**F@b!0** ha scritto:METAR LIEO 270720Z 29005KT 230V320 6000 -DZ SCT010 BKN040 15/14 Q1005=

questo è il metar di Olbia Costa Smeralda del 27/04/09 alle 9:20 (0720 zulu)
qualcuno sà cosa vogliono dire 230V320 e -DZ?????????
-DZ: pioggia debole.
230V320:vento variabile tra 230° e 320°

Avatar utente
AirGek
FL 500
FL 500
Messaggi: 12233
Iscritto il: 7 dicembre 2008, 12:02
Località: 12 o'clock opposite direction

Re: Inserite qui i vostri METAR

Messaggio da AirGek » 27 aprile 2009, 9:41

jimi3500 ha scritto:
**F@b!0** ha scritto:METAR LIEO 270720Z 29005KT 230V320 6000 -DZ SCT010 BKN040 15/14 Q1005=

questo è il metar di Olbia Costa Smeralda del 27/04/09 alle 9:20 (0720 zulu)
qualcuno sà cosa vogliono dire 230V320 e -DZ?????????
-DZ: pioggia debole.
230V320:vento variabile tra 230° e 320°
Occhio che pioggia è identificato con RA mentre DZ sta per drizzle ossia piovigine, il - come ha detto jimi sta per debole mentre + indicherebbe un fenomeno intenso.
Football, basketball, baseball, tennis, golf? No thanks, I fly. Why? Because all that stuff requires one ball only!

Avatar utente
**F@b!0**
FL 500
FL 500
Messaggi: 6896
Iscritto il: 17 aprile 2009, 19:21
Località: Olbia (OT)

Re: Inserite qui i vostri METAR

Messaggio da **F@b!0** » 27 aprile 2009, 9:43

AirGek ha scritto:
jimi3500 ha scritto:
**F@b!0** ha scritto:METAR LIEO 270720Z 29005KT 230V320 6000 -DZ SCT010 BKN040 15/14 Q1005=

questo è il metar di Olbia Costa Smeralda del 27/04/09 alle 9:20 (0720 zulu)
qualcuno sà cosa vogliono dire 230V320 e -DZ?????????
-DZ: pioggia debole.
230V320:vento variabile tra 230° e 320°
Occhio che pioggia è identificato con RA mentre DZ sta per drizzle ossia piovigine, il - come ha detto jimi sta per debole mentre un più indicherebbe un fenomeno intenso.
grazie ad entrambi......il DZ è una mancanza mia che non ho visto a scuola......l'altra dicitura non l'avevo mai vista
grazie di nuovo
Click Here to view my aircraft photos at JetPhotos.Net!

China su fronte, si ses sezzidu pesa! ch'es passende sa Brigata tattaresa boh! boh! E cun sa mannu sinna sa mezzus gioventude de Saldigna

Non bat dinare a pacare
una vida pro miserat chi siat
s' omine
no er de imbolare
pro una gherra chi
est' unu affare


*Virtute Siderum Tenus*

jimi3500
02000 ft
02000 ft
Messaggi: 293
Iscritto il: 29 febbraio 2008, 15:26

Re: Inserite qui i vostri METAR

Messaggio da jimi3500 » 27 aprile 2009, 9:52

AirGek ha scritto:
jimi3500 ha scritto:
**F@b!0** ha scritto:METAR LIEO 270720Z 29005KT 230V320 6000 -DZ SCT010 BKN040 15/14 Q1005=

questo è il metar di Olbia Costa Smeralda del 27/04/09 alle 9:20 (0720 zulu)
qualcuno sà cosa vogliono dire 230V320 e -DZ?????????
-DZ: pioggia debole.
230V320:vento variabile tra 230° e 320°
Occhio che pioggia è identificato con RA mentre DZ sta per drizzle ossia piovigine, il - come ha detto jimi sta per debole mentre + indicherebbe un fenomeno intenso.
mancanza mia.

Avatar utente
aledabo
01000 ft
01000 ft
Messaggi: 180
Iscritto il: 13 agosto 2006, 22:18
Località: Torino

Re: Inserite qui i vostri METAR

Messaggio da aledabo » 5 luglio 2009, 21:17

METAR LIMF 051820Z 31037G48KT 1600 +TSRA BKN015CB 20/13 Q1007=

ora a Caselle!

Avatar utente
Fabri88
FL 400
FL 400
Messaggi: 4233
Iscritto il: 17 novembre 2007, 14:05
Località: Busto Arsizio (Büsti Grandi) - 4,69 nm HDG 84 from MXP

Re: Inserite qui i vostri METAR

Messaggio da Fabri88 » 11 luglio 2009, 21:05

Ho un vuoto di memoria: se il vento è indicato come 180 vuol dire che va verso i 180 (ossia verso Sud) oppure che proviene dai 180 (ossia va verso Nord)?
Immagine
ImmagineImmagine

Avatar utente
Luke3
FL 500
FL 500
Messaggi: 6795
Iscritto il: 4 febbraio 2005, 20:15
Località: Los Angeles, CA

Re: Inserite qui i vostri METAR

Messaggio da Luke3 » 11 luglio 2009, 21:10

DA, il vento viene sempre dato come provenienza

TAF LIRF 111700Z 1118/1218 32010KT 9999 SCT030 BECMG 1120/1122 VRB05KT BECMG 1208/1210 27012KT=

Apparte il vento abbastanza impegnativo aspettavo una giornata così da settimane! Finalmente si può fare un bel volo domani!

Avatar utente
overclock25
01000 ft
01000 ft
Messaggi: 133
Iscritto il: 15 maggio 2008, 7:10
Località: LIRF

Re: Inserite qui i vostri METAR

Messaggio da overclock25 » 25 luglio 2009, 0:29

KDAB 242158Z 24011G19KT 10SM TS SCT038CB BKN080 BKN250 30/24 A2999 RMK TORNADO E55 AO2 TORNADO DSIPTD CONS LTGICCG VC N-NE TS VC N-NE MOV E CB SW-NW MOV E CB DSNT SE-S

Questo vale?!? Stanotte avrei da volare un'oretta proprio su Daytona....secondo voi se po fa?!?!? Tanto tra un piao di ore passa 8)
Green Book

Avatar utente
noone
10000 ft
10000 ft
Messaggi: 1181
Iscritto il: 18 luglio 2008, 12:46
Località: Leman Lake

Re: Inserite qui i vostri METAR

Messaggio da noone » 25 luglio 2009, 1:42

overclock25 ha scritto:KDAB 242158Z 24011G19KT 10SM TS SCT038CB BKN080 BKN250 30/24 A2999 RMK TORNADO E55 AO2 TORNADO DSIPTD CONS LTGICCG VC N-NE TS VC N-NE MOV E CB SW-NW MOV E CB DSNT SE-S

Questo vale?!? Stanotte avrei da volare un'oretta proprio su Daytona....secondo voi se po fa?!?!? Tanto tra un piao di ore passa 8)
Beh di certo non ti annoi :lol:

Avatar utente
Markus_der_Killer
FL 400
FL 400
Messaggi: 4325
Iscritto il: 15 maggio 2009, 9:37

Re: Inserite qui i vostri METAR

Messaggio da Markus_der_Killer » 10 agosto 2009, 19:36

Oggi avrei dovuto volare alle ore 17.00 ZULU
Riportiamo il metar attuale e, vorrei farvi notare che purtroppo oggi un ragassuolo nel suo volo di prova delle 150Nm si è trovato in mezzo ai CB. Invece di atterrare a Fano è atterrato a Falconara Marittima.

SPECI LIPC 101708Z 31009KT 9999 TSRA SCT025CB SCT040TCU 25/22 Q1014 RMK BKN VIS MIN 6000NE WIND THR 12 30008KT WHT=

METAR LIPR 101715Z 16009KT 9999 -TSRA SCT020CB SCT030 25/25 Q1014 RMK OVC VIS MIN 9999 WIND THR 31 16009KT BLU=

METAR LIVF 101655Z 33012KT 9999 -TSRA SCT025CB SCT030TCU 20/16 Q1017 RMK BKN MON LIB VAL NIL VIS MIN 9999=

SPECI LIPY 101700Z 34025KT 1400 R22/1500 +TSRA SCT020 BKN025CB 22/20 Q1015 RMK VIS MIN 1400=

METAR LIRZ 101650Z 35005KT 9999 SCT050 26/17 Q1015 RMK VIS MIN 9999=

Oggi il TAF prevedeva CB... E direi che non ha sbagliato affatto!

(domattina Aggiungerò il TAF che mi ero salvato a mezzogiorno....)
2nd Class JAA Medical Examination status: Accomplished
SPIC status: Accomplished
ENAC Test status: Accomplished
PPL Practical Examination status: Accomplished
License nr: I-PPL-A-031197

Now that I lost my sight I can see it clearer. ....
Remember: Death is not the end, but only a transition.
[...]
Not under your command,
I know where I stand
I won't change to fit your plan,
Take me as I am

Avatar utente
Markus_der_Killer
FL 400
FL 400
Messaggi: 4325
Iscritto il: 15 maggio 2009, 9:37

Re: Inserite qui i vostri METAR

Messaggio da Markus_der_Killer » 11 agosto 2009, 8:26

TAF LIPC 101100Z 1012/1021 09008KT 9999 SCT030 PROB30 TEMPO 1012/1016 RA OR SHRA BKN030=
TAF LIPR 101100Z 1012/1021 03010KT 9999 SCT025 TEMPO 1013/1019 FEW025CB SCT030 PROB40 TEMPO 1013/1019 VRB10G25KT 5000 TSRA SCT025CB BKN030=
TAF LIPY 101100Z 1012/1021 07012KT 9999 SCT025 TEMPO 1015/1018 5000 TSRA SCT015CB BECMG 1018/1020 VRB05KT=
TAF LIRZ 101100Z 1012/1021 21008KT 8000 SCT025 TEMPO 1015/1018 5000 TSRA SCT015CB BECMG 1018/1020 VRB04KT=
TAF LIPK 101100Z 1012/1021 VRB05KT 9999 FEW030 SCT070=

Ed ecco i TAF Che avevo promesso ierisera.... Tempo veramente bellino come si denota! :)
2nd Class JAA Medical Examination status: Accomplished
SPIC status: Accomplished
ENAC Test status: Accomplished
PPL Practical Examination status: Accomplished
License nr: I-PPL-A-031197

Now that I lost my sight I can see it clearer. ....
Remember: Death is not the end, but only a transition.
[...]
Not under your command,
I know where I stand
I won't change to fit your plan,
Take me as I am

Avatar utente
dirk
10000 ft
10000 ft
Messaggi: 1424
Iscritto il: 14 luglio 2007, 19:59
Località: DIXER 5000 ft or above

Re: Inserite qui i vostri METAR

Messaggio da dirk » 13 agosto 2009, 23:01

LIMF 131901Z 14009KT 6000 -TSRA FEW025CB BKN050 23/17 Q1013 RMK VIS MIN 6000
LIMF 131850Z 22008G20KT 1600 +TSSHRAGR SCT018CB OVC030 23/18 Q1013
LIMF 131833Z 34012G26KT 1400 R36/P1500 +TSSHRAGR SCT020CB OVC035 23/17 Q1014
LIMF 131829Z 35015G26KT 1600 TSSHRAGR SCT030CB OVC040 23/19 Q1013

LIMF 131826Z 32019KT 2000 TSSHRA SCT030CB BKN040 23/18 Q1013
LIMF 131823Z 32010KT 6000 TSSHRA SCT030CB BKN040 24/20 Q1013
LIMF 131820Z 32009KT 9999 TSRA SCT030CB BKN040 24/19 Q1013

Avatar utente
SaturnV
05000 ft
05000 ft
Messaggi: 631
Iscritto il: 15 settembre 2008, 14:35
Località: I lost my "M" in Vegas...

Re: Inserite qui i vostri METAR

Messaggio da SaturnV » 14 agosto 2009, 1:33

KIAH 132253Z 16008KT 10SM FEW065 BKN090 OVC250 26/22 A2996 RMK AO2 TSE28 SLP144 SHRA VC NW TS MOV S CB DSNT S T0256022

KMCO 132253Z 01006KT 10SM -TSRA FEW012 SCT028CB OVC065 24/24 A3005 RMK AO2 SLP175 CONS LTGICCG NE-SE TS NE-SE MOV NE P0001 T02440239 $

Qualche metar, ma che significa nel secondo CONS LTGICCG ? Consistent lightning icing e ?
Piloti gente strana:
Pagano quando vogliono volare e se li paghi non vogliono piu' volare...

JAA FAA FI FII MEI GrAn FiGl d PutT Gran FARab LaDr MaScalz d Gran CroC Duca VisConte... e pure Arch-Ing... Per chi capisce.

Avatar utente
albert
md80.it Staff
md80.it Staff
Messaggi: 5837
Iscritto il: 9 ottobre 2007, 2:16
Località: Liguria

Re: Inserite qui i vostri METAR

Messaggio da albert » 15 agosto 2009, 10:25

SaturnV ha scritto:KIAH 132253Z 16008KT 10SM FEW065 BKN090 OVC250 26/22 A2996 RMK AO2 TSE28 SLP144 SHRA VC NW TS MOV S CB DSNT S T0256022

KMCO 132253Z 01006KT 10SM -TSRA FEW012 SCT028CB OVC065 24/24 A3005 RMK AO2 SLP175 CONS LTGICCG NE-SE TS NE-SE MOV NE P0001 T02440239 $

Qualche metar, ma che significa nel secondo CONS LTGICCG ? Consistent lightning icing e ?
Consistent lightning in-cloud and cloud-ground.

ciao!
Alberto
MD80 Fan

«Ogni domanda alla quale si possa dare una risposta ragionevole è lecita.» Konrad Lorenz
«Un sogno scaturito da un grande desiderio: la grande voglia di volare e scoprire altri orizzonti verso i quali andare, con la voglia di nuovo. Per me questa è l'avventura.» Angelo D'Arrigo
«Non prendete la vita troppo sul serio, comunque vada non ne uscirete vivi.» Robert Oppenheimer

Avatar utente
AirGek
FL 500
FL 500
Messaggi: 12233
Iscritto il: 7 dicembre 2008, 12:02
Località: 12 o'clock opposite direction

Re: Inserite qui i vostri METAR

Messaggio da AirGek » 15 agosto 2009, 12:35

Domandina, come mai i METAR d'oltre oceano riportano cosi tante informazioni aggiuntive rispetto ai METAR europei?
Football, basketball, baseball, tennis, golf? No thanks, I fly. Why? Because all that stuff requires one ball only!

Avatar utente
Markus_der_Killer
FL 400
FL 400
Messaggi: 4325
Iscritto il: 15 maggio 2009, 9:37

Re: Inserite qui i vostri METAR

Messaggio da Markus_der_Killer » 26 agosto 2009, 10:44

AirGek ha scritto:Domandina, come mai i METAR d'oltre oceano riportano cosi tante informazioni aggiuntive rispetto ai METAR europei?
Perché hanno 25 miliardi di stazioni sparse su tutto il suolo mentre noi ne abbiamo molte meno in confronto. :P So ammerigani e fan le cose in grande!
2nd Class JAA Medical Examination status: Accomplished
SPIC status: Accomplished
ENAC Test status: Accomplished
PPL Practical Examination status: Accomplished
License nr: I-PPL-A-031197

Now that I lost my sight I can see it clearer. ....
Remember: Death is not the end, but only a transition.
[...]
Not under your command,
I know where I stand
I won't change to fit your plan,
Take me as I am

Avatar utente
AirGek
FL 500
FL 500
Messaggi: 12233
Iscritto il: 7 dicembre 2008, 12:02
Località: 12 o'clock opposite direction

Re: Inserite qui i vostri METAR

Messaggio da AirGek » 16 settembre 2009, 12:12

LICT 160720Z 34034G54KT 0200 TSRA OVC001CB

Viva il VFR col cessnino :mrgreen:

Pian pian migliora :mrgreen:

LICT 161009Z 06006KT 2000 1000 +TSRA OVC005CB

Come mai due valori di visibilità senza altre info?
Football, basketball, baseball, tennis, golf? No thanks, I fly. Why? Because all that stuff requires one ball only!

Avatar utente
AirGek
FL 500
FL 500
Messaggi: 12233
Iscritto il: 7 dicembre 2008, 12:02
Località: 12 o'clock opposite direction

Re: Inserite qui i vostri METAR

Messaggio da AirGek » 19 novembre 2009, 18:48

LIEO 182220Z 21003KT 0050 R06/0400N FG OVC001 13/13 Q1025

No no, è LIEO non LIML :mrgreen:
Football, basketball, baseball, tennis, golf? No thanks, I fly. Why? Because all that stuff requires one ball only!

Avatar utente
Ciccillo
00500 ft
00500 ft
Messaggi: 55
Iscritto il: 9 giugno 2007, 5:23
Località: BRI

Re: Inserite qui i vostri METAR

Messaggio da Ciccillo » 19 novembre 2009, 23:05

LIBE 230632Z 20026KT 0000 TSRA FG VV/// 13/09 Q1002 RMK MON INVIS VAL INVIS VIS MIN 0000

Neanche questo è male :)

Avatar utente
Tony88
10000 ft
10000 ft
Messaggi: 1250
Iscritto il: 25 febbraio 2009, 11:47
Località: Varedo (MI)

Re: Inserite qui i vostri METAR

Messaggio da Tony88 » 19 novembre 2009, 23:27

AirGek ha scritto:LIEO 182220Z 21003KT 0050 R06/0400N FG OVC001 13/13 Q1025

No no, è LIEO non LIML :mrgreen:
hai provato a fare un voletto con il Cessnino con questo tempo?? :mrgreen:
Aeroclub Milano Student
ATPL theorical started!!!
PPL (A) obtained!!!
22/09/09...da oggi si iniza...

Avatar utente
AirGek
FL 500
FL 500
Messaggi: 12233
Iscritto il: 7 dicembre 2008, 12:02
Località: 12 o'clock opposite direction

Re: Inserite qui i vostri METAR

Messaggio da AirGek » 20 novembre 2009, 12:59

Tony88 ha scritto:
AirGek ha scritto:LIEO 182220Z 21003KT 0050 R06/0400N FG OVC001 13/13 Q1025

No no, è LIEO non LIML :mrgreen:
hai provato a fare un voletto con il Cessnino con questo tempo?? :mrgreen:
Ci puoi giurare, ero in volo al momento dell'osservazione. Non era un problema 0050 perchè il cessnino ha una funzione che si chiama WTREV (che sta per Wake Turbulence Reversed) ossia l'effetto della turbolenza di scia si manifesta davanti all'aereo e non dietro, rimescolando cosi l'aria e incrementando la visibiltà. CESSNINO ROCKS :headbang: :mrgreen:
Football, basketball, baseball, tennis, golf? No thanks, I fly. Why? Because all that stuff requires one ball only!

Avatar utente
Tony88
10000 ft
10000 ft
Messaggi: 1250
Iscritto il: 25 febbraio 2009, 11:47
Località: Varedo (MI)

Re: Inserite qui i vostri METAR

Messaggio da Tony88 » 20 novembre 2009, 14:29

AirGek ha scritto:
Tony88 ha scritto:
AirGek ha scritto:LIEO 182220Z 21003KT 0050 R06/0400N FG OVC001 13/13 Q1025

No no, è LIEO non LIML :mrgreen:
hai provato a fare un voletto con il Cessnino con questo tempo?? :mrgreen:
Ci puoi giurare, ero in volo al momento dell'osservazione. Non era un problema 0050 perchè il cessnino ha una funzione che si chiama WTREV (che sta per Wake Turbulence Reversed) ossia l'effetto della turbolenza di scia si manifesta davanti all'aereo e non dietro, rimescolando cosi l'aria e incrementando la visibiltà. CESSNINO ROCKS :headbang: :mrgreen:
:lol: :lol: :lol: :lol: bella!!
Aeroclub Milano Student
ATPL theorical started!!!
PPL (A) obtained!!!
22/09/09...da oggi si iniza...

Avatar utente
albert
md80.it Staff
md80.it Staff
Messaggi: 5837
Iscritto il: 9 ottobre 2007, 2:16
Località: Liguria

Re: Inserite qui i vostri METAR

Messaggio da albert » 18 dicembre 2009, 16:41

LIMJ 181520Z 02011KT 1200 0900E R29/1100N SN OVC035 M01/M04 Q1000 R29/599924=
LIMG 181450Z 34008G20KT 270V040 0500 +SN OVC001 00/M01 Q0999 RMK VIS MIN 0500

Buon Natale dalla Liguria!!!! :mrgreen: :mrgreen:
Ah, LIMJ è chiuso per neve...

ciao!
Alberto
MD80 Fan

«Ogni domanda alla quale si possa dare una risposta ragionevole è lecita.» Konrad Lorenz
«Un sogno scaturito da un grande desiderio: la grande voglia di volare e scoprire altri orizzonti verso i quali andare, con la voglia di nuovo. Per me questa è l'avventura.» Angelo D'Arrigo
«Non prendete la vita troppo sul serio, comunque vada non ne uscirete vivi.» Robert Oppenheimer

Avatar utente
air.surfer
FL 500
FL 500
Messaggi: 9215
Iscritto il: 18 aprile 2007, 9:36

Re: Inserite qui i vostri METAR

Messaggio da air.surfer » 18 dicembre 2009, 16:44

albert ha scritto:LIMJ 181520Z 02011KT 1200 0900E R29/1100N SN OVC035 M01/M04 Q1000 R29/599924=
LIMG 181450Z 34008G20KT 270V040 0500 +SN OVC001 00/M01 Q0999 RMK VIS MIN 0500
Buon Natale dalla Liguria!!!! :mrgreen: :mrgreen:
Ah, LIMJ è chiuso per neve...
ciao!
... invece Albenga... eh eh!
Certe volte non rimpiango proprio di essere in CIGS... :mrgreen:

Avatar utente
N176CM
md80.it Staff
md80.it Staff
Messaggi: 5247
Iscritto il: 9 settembre 2005, 13:02
Località: Milano

Re: Inserite qui i vostri METAR

Messaggio da N176CM » 18 dicembre 2009, 17:30

Vogliamo parlare di ieri a BRU e CDG? Dirottamenti in mezza Europa, cancellazioni e ritardi di ore... Buon Natale :mrgreen:
N176CM
n176cm AT md80.it

Immagine

Avatar utente
JT8D
Administrator
Administrator
Messaggi: 16048
Iscritto il: 2 agosto 2005, 20:38
Località: Limbiate (MB)
Contatta:

Re: Inserite qui i vostri METAR

Messaggio da JT8D » 18 dicembre 2009, 21:20

Sì, c'è caos in mezza Europa :

http://www.md80.it/2009/12/18/forti-dis ... -maltempo/

Paolo
"La corsa di decollo è una metamorfosi, una quantità di metallo che si trasforma in aeroplano per mezzo dell'aria. Ogni corsa di decollo è la nascita di un aeroplano".


Avatar utente
Fabri88
FL 400
FL 400
Messaggi: 4233
Iscritto il: 17 novembre 2007, 14:05
Località: Busto Arsizio (Büsti Grandi) - 4,69 nm HDG 84 from MXP

Re: Inserite qui i vostri METAR

Messaggio da Fabri88 » 19 dicembre 2009, 22:57

LIMC 192120Z VRB02KT 0200 R35R/0450V1100U R35L/0650N FZFG VV/// M09/M11 Q1000 NOSIG

chi sa decifrarmi sto Metar?
Immagine
ImmagineImmagine

Avatar utente
SIPRO1A
FL 150
FL 150
Messaggi: 1579
Iscritto il: 9 luglio 2009, 15:36
Località: Reggio Calabria City

Re: Inserite qui i vostri METAR

Messaggio da SIPRO1A » 19 dicembre 2009, 23:58

Fabri88 ha scritto:LIMC 192120Z VRB02KT 0200 R35R/0450V1100U R35L/0650N FZFG VV/// M09/M11 Q1000 NOSIG

chi sa decifrarmi sto Metar?
Milano Malpensa giorno 19 ore 21.20 zulu, vento variabile a due nodi, visibilità 200 metri, RVR per pista 35R è 450m variabile 1100m e migliora, pista 35L 650m e non cambia, nebbia ghiacciata, impossibile misurare la visibilità verticale, temperatura -9° C e punto di rugiada -11°, QNH 1000 e nessuno cambiamento significativo nelle prossime due ore.
кαмιℓ

Fly the Flag!

Immagine

Avatar utente
Fabri88
FL 400
FL 400
Messaggi: 4233
Iscritto il: 17 novembre 2007, 14:05
Località: Busto Arsizio (Büsti Grandi) - 4,69 nm HDG 84 from MXP

Re: Inserite qui i vostri METAR

Messaggio da Fabri88 » 20 dicembre 2009, 1:05

Grazie 1000!

Non avevo in mente specie la questione della VV///!
Immagine
ImmagineImmagine

Avatar utente
SIPRO1A
FL 150
FL 150
Messaggi: 1579
Iscritto il: 9 luglio 2009, 15:36
Località: Reggio Calabria City

Re: Inserite qui i vostri METAR

Messaggio da SIPRO1A » 20 dicembre 2009, 1:31

Fabri88 ha scritto:Grazie 1000!

Non avevo in mente specie la questione della VV///!
Di niente. Si mette quando la nebbia è talmente densa che non si può neanche misurare la visibilità verticale. :wink:
кαмιℓ

Fly the Flag!

Immagine

Rispondi